createdAt,value
2023-02-07T00:00:32.759Z,-3.96
2023-02-07T00:05:36.690Z,-3.95
2023-02-07T00:10:38.248Z,-3.91
2023-02-07T00:15:39.886Z,-3.87
2023-02-07T00:20:41.353Z,-3.85
2023-02-07T00:25:45.968Z,-3.90
2023-02-07T00:30:47.876Z,-3.99
2023-02-07T00:35:57.391Z,-4.06
2023-02-07T00:40:59.049Z,-4.09
2023-02-07T00:46:02.741Z,-4.21
2023-02-07T00:51:04.282Z,-4.27
2023-02-07T00:56:06.537Z,-4.35
2023-02-07T01:01:08.331Z,-4.41
2023-02-07T01:06:10.109Z,-4.45
2023-02-07T01:11:14.657Z,-4.49
2023-02-07T01:16:29.481Z,-4.43
2023-02-07T01:21:30.956Z,-4.41
2023-02-07T01:26:32.399Z,-4.39
2023-02-07T01:31:34.231Z,-4.42
2023-02-07T01:36:35.837Z,-4.48
2023-02-07T01:41:38.203Z,-4.53
2023-02-07T01:46:39.998Z,-4.54
2023-02-07T01:51:47.296Z,-4.58
2023-02-07T01:56:55.158Z,-4.74
2023-02-07T02:01:57.634Z,-4.80
2023-02-07T02:06:59.169Z,-4.84
2023-02-07T02:12:03.619Z,-4.85
2023-02-07T02:17:09.374Z,-4.83
2023-02-07T02:22:25.947Z,-4.81
2023-02-07T02:27:54.710Z,-4.76
2023-02-07T02:33:12.851Z,-4.67
2023-02-07T02:38:25.635Z,-4.69
2023-02-07T02:43:31.144Z,-4.79
2023-02-07T02:48:35.224Z,-4.96
2023-02-07T02:53:36.944Z,-4.98
2023-02-07T02:59:01.569Z,-5.07
2023-02-07T03:04:06.099Z,-5.12
2023-02-07T03:09:39.725Z,-5.16
2023-02-07T03:14:55.323Z,-5.20
2023-02-07T03:20:09.175Z,-5.21
2023-02-07T03:25:14.548Z,-5.26
2023-02-07T03:30:20.756Z,-5.28
2023-02-07T03:35:29.001Z,-5.24
2023-02-07T03:40:58.914Z,-5.15
2023-02-07T03:46:00.830Z,-5.09
2023-02-07T03:51:02.571Z,-5.10
2023-02-07T03:56:04.249Z,-5.09
2023-02-07T04:01:06.120Z,-5.15
2023-02-07T04:06:07.696Z,-5.20
2023-02-07T04:11:09.089Z,-5.24
2023-02-07T04:16:10.612Z,-5.30
2023-02-07T04:21:12.088Z,-5.27
2023-02-07T04:26:13.677Z,-5.26
2023-02-07T04:31:15.315Z,-5.25
2023-02-07T04:36:16.866Z,-5.25
2023-02-07T04:41:18.315Z,-5.27
2023-02-07T04:46:19.781Z,-5.35
2023-02-07T04:51:21.227Z,-5.40
2023-02-07T04:56:23.226Z,-5.44
2023-02-07T05:01:24.705Z,-5.50
2023-02-07T05:06:26.422Z,-5.54
2023-02-07T05:11:27.892Z,-5.52
2023-02-07T05:16:29.323Z,-5.45
2023-02-07T05:21:30.798Z,-5.49
2023-02-07T05:26:32.287Z,-5.47
2023-02-07T05:31:52.366Z,-5.43
2023-02-07T05:36:53.876Z,-5.48
2023-02-07T05:41:55.328Z,-5.51
2023-02-07T05:46:56.808Z,-5.44
2023-02-07T05:51:58.219Z,-5.32
2023-02-07T05:56:59.643Z,-5.25
2023-02-07T06:02:01.153Z,-5.28
2023-02-07T06:07:02.595Z,-5.32
2023-02-07T06:12:05.313Z,-5.33
2023-02-07T06:17:06.934Z,-5.31
2023-02-07T06:22:08.389Z,-5.32
2023-02-07T06:27:10.142Z,-5.34
2023-02-07T06:32:12.693Z,-5.38
2023-02-07T06:37:14.137Z,-5.41
2023-02-07T06:42:15.844Z,-5.40
2023-02-07T06:47:20.466Z,-5.34
2023-02-07T06:52:25.086Z,-5.25
2023-02-07T06:57:27.110Z,-5.18
2023-02-07T07:02:28.871Z,-5.06
2023-02-07T07:07:30.488Z,-4.92
2023-02-07T07:12:32.179Z,-4.78
2023-02-07T07:17:33.793Z,-4.69
2023-02-07T07:22:35.802Z,-4.56
2023-02-07T07:27:37.508Z,-4.47
2023-02-07T07:32:39.088Z,-4.39
2023-02-07T07:37:41.882Z,-4.37
2023-02-07T07:42:43.407Z,-4.37
2023-02-07T07:47:56.125Z,-4.45
2023-02-07T07:52:57.762Z,-4.51
2023-02-07T07:57:59.320Z,-4.53
2023-02-07T08:03:01.200Z,-4.55
2023-02-07T08:08:02.812Z,-4.53
2023-02-07T08:13:04.674Z,-4.44
2023-02-07T08:18:06.467Z,-4.52
2023-02-07T08:23:08.046Z,-4.52
2023-02-07T08:28:10.295Z,-4.34
2023-02-07T08:33:11.835Z,-4.15
2023-02-07T08:38:13.314Z,-3.98
2023-02-07T08:43:15.340Z,-3.87
2023-02-07T08:48:16.998Z,-3.75
2023-02-07T08:53:18.594Z,-3.62
2023-02-07T08:58:20.917Z,-3.50
2023-02-07T09:03:22.439Z,-3.34
2023-02-07T09:08:24.462Z,-3.20
2023-02-07T09:13:29.493Z,-3.03
2023-02-07T09:18:31.195Z,-2.85
2023-02-07T09:23:35.649Z,-2.66
2023-02-07T09:28:37.913Z,-2.46
2023-02-07T09:33:40.463Z,-2.24
2023-02-07T09:38:44.381Z,-2.10
2023-02-07T09:43:57.158Z,-1.98
2023-02-07T09:49:33.576Z,-1.88
2023-02-07T09:54:39.667Z,-1.80
2023-02-07T09:59:50.484Z,-1.71
2023-02-07T10:04:54.981Z,-1.72
2023-02-07T10:09:57.117Z,-1.69
2023-02-07T10:15:20.311Z,-1.57
2023-02-07T10:20:29.769Z,-1.45
2023-02-07T10:25:38.872Z,-1.24
2023-02-07T10:30:49.579Z,-1.06
2023-02-07T10:35:53.825Z,-0.91
2023-02-07T10:41:03.288Z,-0.81
2023-02-07T10:46:15.449Z,-0.76
2023-02-07T10:51:36.016Z,-0.69
2023-02-07T10:56:45.355Z,-0.60
2023-02-07T11:01:54.236Z,-0.51
2023-02-07T11:07:01.145Z,-0.38
2023-02-07T11:12:16.865Z,-0.33
2023-02-07T11:17:21.837Z,-0.30
2023-02-07T11:22:25.131Z,-0.26
2023-02-07T11:27:27.834Z,-0.16
2023-02-07T11:32:30.110Z,-0.07
2023-02-07T11:37:41.903Z,0.04
2023-02-07T11:42:43.700Z,0.12
2023-02-07T11:47:49.125Z,0.22
2023-02-07T11:52:56.297Z,0.36
2023-02-07T11:57:58.985Z,0.44
2023-02-07T12:03:11.402Z,0.55
2023-02-07T12:08:18.099Z,0.60
2023-02-07T12:13:30.943Z,0.66
2023-02-07T12:18:38.102Z,0.69
2023-02-07T12:24:07.275Z,0.75
2023-02-07T12:29:52.398Z,0.74
2023-02-07T12:35:24.417Z,0.69
2023-02-07T12:40:39.026Z,0.74
2023-02-07T12:45:54.581Z,0.77
2023-02-07T12:50:59.172Z,0.78
2023-02-07T12:56:06.545Z,0.78
2023-02-07T13:01:20.357Z,0.76
2023-02-07T13:06:40.627Z,0.81
2023-02-07T13:11:47.923Z,0.86
2023-02-07T13:17:02.771Z,0.92
2023-02-07T13:22:26.868Z,0.95
2023-02-07T13:27:30.070Z,0.90
2023-02-07T13:32:31.423Z,1.40
2023-02-07T13:37:49.823Z,2.93
2023-02-07T13:43:03.509Z,4.15
2023-02-07T13:48:32.865Z,4.81
2023-02-07T13:53:58.519Z,4.47
2023-02-07T13:59:19.761Z,3.42
2023-02-07T14:04:23.407Z,2.50
2023-02-07T14:09:49.004Z,2.09
2023-02-07T14:15:02.335Z,2.03
2023-02-07T14:20:05.673Z,2.06
2023-02-07T14:25:07.320Z,2.01
2023-02-07T14:30:11.572Z,1.91
2023-02-07T14:35:16.446Z,1.83
2023-02-07T14:40:22.710Z,1.73
2023-02-07T14:45:24.925Z,1.64
2023-02-07T14:50:30.721Z,1.52
2023-02-07T14:55:43.215Z,1.40
2023-02-07T15:00:58.757Z,1.32
2023-02-07T15:06:02.575Z,1.20
2023-02-07T15:11:25.086Z,1.01
2023-02-07T15:16:33.217Z,0.81
2023-02-07T15:21:45.937Z,0.69
2023-02-07T15:26:56.782Z,0.60
2023-02-07T15:31:59.459Z,0.53
2023-02-07T15:37:14.599Z,0.44
2023-02-07T15:42:18.682Z,0.37
2023-02-07T15:47:29.322Z,0.30
2023-02-07T15:52:40.088Z,0.21
2023-02-07T15:57:43.001Z,0.11
2023-02-07T16:02:53.950Z,0.02
2023-02-07T16:07:56.220Z,-0.10
2023-02-07T16:13:06.721Z,-0.20
2023-02-07T16:18:36.752Z,-0.29
2023-02-07T16:23:38.433Z,-0.35
2023-02-07T16:28:40.014Z,-0.43
2023-02-07T16:33:41.482Z,-0.51
2023-02-07T16:38:43.782Z,-0.57
2023-02-07T16:43:46.036Z,-0.63
2023-02-07T16:48:47.484Z,-0.69
2023-02-07T16:53:50.363Z,-0.74
2023-02-07T16:58:51.829Z,-0.83
2023-02-07T17:03:53.243Z,-0.89
2023-02-07T17:08:56.316Z,-0.94
2023-02-07T17:13:58.993Z,-0.99
2023-02-07T17:19:01.422Z,-1.08
2023-02-07T17:24:02.863Z,-1.17
2023-02-07T17:29:04.919Z,-1.26
2023-02-07T17:34:06.584Z,-1.33
2023-02-07T17:39:12.487Z,-1.38
2023-02-07T17:44:13.994Z,-1.45
2023-02-07T17:49:16.885Z,-1.50
2023-02-07T17:54:18.559Z,-1.55
2023-02-07T17:59:24.430Z,-1.57
2023-02-07T18:04:25.949Z,-1.63
2023-02-07T18:09:27.398Z,-1.67
2023-02-07T18:14:30.163Z,-1.73
2023-02-07T18:19:32.493Z,-1.78
2023-02-07T18:24:33.963Z,-1.75
2023-02-07T18:29:35.507Z,-1.76
2023-02-07T18:34:36.939Z,-1.78
2023-02-07T18:39:38.701Z,-1.83
2023-02-07T18:44:40.806Z,-1.86
2023-02-07T18:49:42.294Z,-1.88
2023-02-07T18:54:44.520Z,-1.96
2023-02-07T18:59:46.010Z,-2.02
2023-02-07T19:04:47.689Z,-2.06
2023-02-07T19:09:49.281Z,-2.10
2023-02-07T19:14:50.962Z,-2.08
2023-02-07T19:19:52.562Z,-2.01
2023-02-07T19:24:54.141Z,-1.98
2023-02-07T19:29:55.558Z,-2.01
2023-02-07T19:34:57.037Z,-2.09
2023-02-07T19:39:58.478Z,-2.15
2023-02-07T19:45:00.094Z,-2.19
2023-02-07T19:50:02.139Z,-2.22
2023-02-07T19:55:04.303Z,-2.26
2023-02-07T20:00:07.212Z,-2.32
2023-02-07T20:05:08.880Z,-2.35
2023-02-07T20:10:10.605Z,-2.42
2023-02-07T20:15:12.299Z,-2.45
2023-02-07T20:20:14.996Z,-2.43
2023-02-07T20:25:16.479Z,-2.43
2023-02-07T20:30:17.998Z,-2.44
2023-02-07T20:35:19.636Z,-2.46
2023-02-07T20:40:21.111Z,-2.46
2023-02-07T20:45:22.632Z,-2.49
2023-02-07T20:50:24.124Z,-2.50
2023-02-07T20:55:25.655Z,-2.49
2023-02-07T21:00:27.137Z,-2.47
2023-02-07T21:05:28.567Z,-2.46
2023-02-07T21:10:30.048Z,-2.49
2023-02-07T21:15:31.528Z,-2.51
2023-02-07T21:20:33.232Z,-2.56
2023-02-07T21:25:34.983Z,-2.61
2023-02-07T21:30:36.633Z,-2.66
2023-02-07T21:35:38.132Z,-2.78
2023-02-07T21:40:39.798Z,-2.81
2023-02-07T21:45:41.375Z,-2.80
2023-02-07T21:50:42.825Z,-2.78
2023-02-07T21:55:44.241Z,-2.80
2023-02-07T22:00:45.698Z,-2.82
2023-02-07T22:05:50.510Z,-2.91
2023-02-07T22:10:51.981Z,-2.93
2023-02-07T22:15:53.429Z,-2.92
2023-02-07T22:20:55.937Z,-2.92
2023-02-07T22:25:57.350Z,-2.89
2023-02-07T22:30:59.357Z,-2.85
2023-02-07T22:36:00.878Z,-2.84
2023-02-07T22:41:04.079Z,-2.85
2023-02-07T22:46:06.800Z,-2.89
2023-02-07T22:51:13.806Z,-2.90
2023-02-07T22:56:16.123Z,-2.93
2023-02-07T23:01:27.721Z,-2.96
2023-02-07T23:06:29.576Z,-2.99
2023-02-07T23:11:31.194Z,-3.06
2023-02-07T23:16:33.613Z,-3.11
2023-02-07T23:21:35.523Z,-3.19
2023-02-07T23:26:37.581Z,-3.31
2023-02-07T23:31:39.085Z,-3.36
2023-02-07T23:36:40.594Z,-3.35
2023-02-07T23:41:42.036Z,-3.42
2023-02-07T23:46:43.493Z,-3.47
2023-02-07T23:51:45.572Z,-3.53
2023-02-07T23:56:47.082Z,-3.52
